Time;durP1;ratioP1;P1;durP2;ratioP2;P2;SDS_P1;SDS_P2;PMS_P1;PMS_P2;Temp;Humidity;BMP_temperature;BMP_pressure;BME280_temperature;BME280_humidity;BME280_pressure;Samples;Min_cycle;Max_cycle;Signal;HPM_P1;HPM_P2
2023/12/11 00:00:43;;;;;;;;;;;8.20;99.90;;;;;;5102319;27;20748;-77
2023/12/11 00:03:08;;;;;;;;;;;8.20;99.90;;;;;;5107023;27;19953;-78
2023/12/11 00:05:37;;;;;;;;;;;8.20;99.90;;;;;;5085800;27;19985;-78
2023/12/11 00:08:03;;;;;;;;;;;8.20;99.90;;;;;;5105762;27;19980;-78
2023/12/11 00:10:29;;;;;;;;;;;8.20;99.90;;;;;;5089674;27;20210;-78
2023/12/11 00:12:54;;;;;;;;;;;8.20;99.90;;;;;;5109986;27;20000;-78
2023/12/11 00:15:20;;;;;;;;;;;8.20;99.90;;;;;;5109153;27;19931;-77
2023/12/11 00:17:46;;;;;;;;;;;8.20;99.90;;;;;;5124148;27;20045;-78
2023/12/11 00:20:12;;;;;;;;;;;8.20;99.90;;;;;;5110764;27;20365;-78
2023/12/11 00:22:37;;;;;;;;;;;8.20;99.90;;;;;;5092852;27;19984;-78
2023/12/11 00:25:03;;;;;;;;;;;8.20;99.90;;;;;;5124931;27;19927;-77
2023/12/11 00:27:30;;;;;;;;;;;8.10;99.90;;;;;;5093332;27;20576;-78
2023/12/11 00:29:55;;;;;;;;;;;8.10;99.90;;;;;;5095596;27;19969;-78
2023/12/11 00:32:21;;;;;;;;;;;8.10;99.90;;;;;;5109721;27;19963;-77
2023/12/11 00:34:47;;;;;;;;;;;8.10;99.90;;;;;;5122851;27;19988;-78
2023/12/11 00:37:12;;;;;;;;;;;8.00;99.90;;;;;;5108910;27;19927;-77
2023/12/11 00:39:38;;;;;;;;;;;8.00;99.90;;;;;;5103786;27;19927;-77
2023/12/11 00:42:03;;;;;;;;;;;8.00;99.90;;;;;;5107661;27;20380;-77
2023/12/11 00:44:29;;;;;;;;;;;8.00;99.90;;;;;;5102241;27;19931;-77
2023/12/11 00:46:55;;;;;;;;;;;7.90;99.90;;;;;;5109349;27;19932;-78
2023/12/11 00:49:20;;;;;;;;;;;8.00;99.90;;;;;;5104488;27;21067;-78
2023/12/11 00:51:48;;;;;;;;;;;8.00;99.90;;;;;;5093924;27;19930;-77
2023/12/11 00:54:14;;;;;;;;;;;8.00;99.90;;;;;;5092506;27;19927;-78
2023/12/11 00:56:40;;;;;;;;;;;8.00;99.90;;;;;;5103580;27;19974;-78
2023/12/11 00:59:06;;;;;;;;;;;8.00;99.90;;;;;;5093449;27;21860;-78
2023/12/11 01:01:31;;;;;;;;;;;7.90;99.90;;;;;;5090570;27;19943;-77
2023/12/11 01:03:57;;;;;;;;;;;8.00;99.90;;;;;;5109824;27;20260;-77
2023/12/11 01:06:22;;;;;;;;;;;8.00;99.90;;;;;;5103195;27;19930;-77
2023/12/11 01:08:48;;;;;;;;;;;8.00;99.90;;;;;;5100860;27;19923;-78
2023/12/11 01:11:14;;;;;;;;;;;8.00;99.90;;;;;;5104876;27;19961;-78
2023/12/11 01:13:39;;;;;;;;;;;8.10;99.90;;;;;;5089522;27;20798;-78
2023/12/11 01:16:05;;;;;;;;;;;8.20;99.90;;;;;;5096017;27;19927;-78
2023/12/11 01:18:31;;;;;;;;;;;8.20;99.90;;;;;;5094192;27;19928;-78
2023/12/11 01:20:57;;;;;;;;;;;8.20;99.90;;;;;;5104733;27;20543;-78
2023/12/11 01:23:23;;;;;;;;;;;8.20;99.90;;;;;;5081508;27;20034;-77
2023/12/11 01:25:48;;;;;;;;;;;8.30;99.90;;;;;;5105119;27;19930;-78
2023/12/11 01:28:14;;;;;;;;;;;8.30;99.90;;;;;;5093059;27;19939;-78
2023/12/11 01:30:40;;;;;;;;;;;8.20;99.90;;;;;;5102536;27;19923;-78
2023/12/11 01:33:05;;;;;;;;;;;8.30;99.90;;;;;;5122192;27;19951;-78
2023/12/11 01:35:34;;;;;;;;;;;7.70;99.90;;;;;;5100901;27;20464;-78
2023/12/11 01:38:00;;;;;;;;;;;8.20;99.90;;;;;;5100112;27;19923;-78
2023/12/11 01:40:25;;;;;;;;;;;8.30;99.90;;;;;;5104877;27;19931;-78
2023/12/11 01:42:51;;;;;;;;;;;7.20;99.90;;;;;;5089067;27;20810;-78
2023/12/11 01:45:18;;;;;;;;;;;8.30;99.90;;;;;;5107989;27;19927;-78
2023/12/11 01:47:43;;;;;;;;;;;8.30;99.90;;;;;;5106932;27;20017;-78
2023/12/11 01:50:09;;;;;;;;;;;8.30;99.90;;;;;;5094445;27;19927;-78
2023/12/11 01:52:35;;;;;;;;;;;8.30;99.90;;;;;;5106936;27;20645;-78
2023/12/11 01:55:02;;;;;;;;;;;8.30;99.90;;;;;;5110977;27;19934;-78
2023/12/11 01:57:27;;;;;;;;;;;8.30;99.90;;;;;;5106891;27;19934;-78
2023/12/11 01:59:53;;;;;;;;;;;8.30;99.90;;;;;;5093904;27;20176;-78
2023/12/11 02:02:20;;;;;;;;;;;8.40;99.90;;;;;;5085807;27;20213;-78
2023/12/11 02:04:46;;;;;;;;;;;8.40;99.90;;;;;;5097086;27;19923;-77
2023/12/11 02:07:11;;;;;;;;;;;8.40;99.90;;;;;;5103355;27;19927;-78
2023/12/11 02:09:37;;;;;;;;;;;8.40;99.90;;;;;;5109448;27;20064;-78
2023/12/11 02:12:03;;;;;;;;;;;8.40;99.90;;;;;;5104613;27;20397;-78
2023/12/11 02:14:28;;;;;;;;;;;8.40;99.90;;;;;;5093888;27;19931;-78
2023/12/11 02:16:54;;;;;;;;;;;8.40;99.90;;;;;;5095623;27;19966;-78
2023/12/11 02:19:20;;;;;;;;;;;8.40;99.90;;;;;;5108528;27;20259;-78
2023/12/11 02:21:45;;;;;;;;;;;8.40;99.90;;;;;;5090967;27;19923;-78
2023/12/11 02:24:37;;;;;;;;;;;8.40;99.90;;;;;;5109759;27;19984;-78
2023/12/11 02:27:02;;;;;;;;;;;8.40;99.90;;;;;;5126428;27;20020;-78
2023/12/11 02:29:28;;;;;;;;;;;8.40;99.90;;;;;;5112658;27;19932;-78
2023/12/11 02:31:54;;;;;;;;;;;8.40;99.90;;;;;;5097280;27;19934;-78
2023/12/11 02:34:19;;;;;;;;;;;8.40;99.90;;;;;;5105075;27;19927;-78
2023/12/11 02:36:45;;;;;;;;;;;8.40;99.90;;;;;;5125370;27;19927;-79
2023/12/11 02:39:10;;;;;;;;;;;8.40;99.90;;;;;;5127725;27;19920;-78
2023/12/11 02:41:36;;;;;;;;;;;8.40;99.90;;;;;;5105986;27;20305;-78
2023/12/11 02:44:02;;;;;;;;;;;8.40;99.90;;;;;;5105665;27;20043;-78
2023/12/11 02:46:27;;;;;;;;;;;8.50;99.90;;;;;;5103386;27;19931;-77
2023/12/11 02:48:53;;;;;;;;;;;8.40;99.90;;;;;;5092189;27;20031;-78
2023/12/11 02:51:19;;;;;;;;;;;8.50;99.90;;;;;;5097174;27;20410;-78
2023/12/11 02:53:45;;;;;;;;;;;8.50;99.90;;;;;;5104521;27;19931;-78
2023/12/11 02:56:11;;;;;;;;;;;8.50;99.90;;;;;;5089594;27;20231;-78
2023/12/11 02:58:36;;;;;;;;;;;8.50;99.90;;;;;;5093485;27;19931;-78
2023/12/11 03:01:02;;;;;;;;;;;8.50;99.90;;;;;;5094421;27;19931;-78
2023/12/11 03:03:28;;;;;;;;;;;8.50;99.90;;;;;;5103159;27;20014;-78
2023/12/11 03:05:54;;;;;;;;;;;8.50;99.90;;;;;;5088106;27;20170;-78
2023/12/11 03:08:19;;;;;;;;;;;8.60;99.90;;;;;;5087010;27;19927;-78
2023/12/11 03:10:45;;;;;;;;;;;8.60;99.90;;;;;;5093425;27;19923;-78
2023/12/11 03:13:10;;;;;;;;;;;8.50;99.90;;;;;;5101129;27;19931;-79
2023/12/11 03:15:36;;;;;;;;;;;8.50;99.90;;;;;;5103661;27;19926;-79
2023/12/11 03:18:02;;;;;;;;;;;8.40;99.90;;;;;;5088503;27;19930;-79
2023/12/11 03:20:27;;;;;;;;;;;8.40;99.90;;;;;;5109957;27;20036;-79
2023/12/11 03:22:53;;;;;;;;;;;8.40;99.90;;;;;;5103787;27;20009;-78
2023/12/11 03:25:21;;;;;;;;;;;8.40;99.90;;;;;;5110532;27;21510;-78
2023/12/11 03:27:47;;;;;;;;;;;8.40;99.90;;;;;;5093256;27;19934;-77
2023/12/11 03:30:13;;;;;;;;;;;8.40;99.90;;;;;;5077491;27;19924;-78
2023/12/11 03:32:38;;;;;;;;;;;8.40;99.90;;;;;;5090486;27;19927;-78
2023/12/11 03:35:04;;;;;;;;;;;8.40;99.90;;;;;;5109634;27;20287;-79
2023/12/11 03:37:30;;;;;;;;;;;8.40;99.90;;;;;;5094005;27;20291;-78
2023/12/11 03:39:56;;;;;;;;;;;8.40;99.90;;;;;;5103357;27;19963;-79
2023/12/11 03:42:21;;;;;;;;;;;8.40;99.90;;;;;;5108366;27;20420;-78
2023/12/11 03:44:47;;;;;;;;;;;8.40;99.90;;;;;;5106432;27;19927;-78
2023/12/11 03:47:13;;;;;;;;;;;8.40;99.90;;;;;;5091570;27;19919;-78
2023/12/11 03:49:38;;;;;;;;;;;8.40;99.90;;;;;;5078954;27;19996;-79
2023/12/11 03:52:04;;;;;;;;;;;8.40;99.90;;;;;;5104486;27;20443;-78
2023/12/11 03:54:30;;;;;;;;;;;8.40;99.90;;;;;;5109819;27;20572;-79
2023/12/11 03:56:56;;;;;;;;;;;8.40;99.90;;;;;;5106045;27;19972;-78
2023/12/11 03:59:22;;;;;;;;;;;8.40;99.90;;;;;;5090907;27;19982;-78
2023/12/11 04:01:47;;;;;;;;;;;8.40;99.90;;;;;;5105636;27;19928;-79
2023/12/11 04:04:13;;;;;;;;;;;8.40;99.90;;;;;;5092691;27;19934;-78
2023/12/11 04:06:39;;;;;;;;;;;8.40;99.90;;;;;;5123602;27;19931;-79
2023/12/11 04:09:04;;;;;;;;;;;8.40;99.90;;;;;;5102974;27;20014;-79
2023/12/11 04:11:30;;;;;;;;;;;8.40;99.90;;;;;;5102215;27;19928;-78
2023/12/11 04:13:56;;;;;;;;;;;8.40;99.90;;;;;;5106545;27;19973;-78
2023/12/11 04:16:21;;;;;;;;;;;8.40;99.90;;;;;;5091683;27;19968;-78
2023/12/11 04:18:47;;;;;;;;;;;8.40;99.90;;;;;;5103443;27;20090;-78
2023/12/11 04:21:12;;;;;;;;;;;8.40;99.90;;;;;;5108789;27;20016;-78
2023/12/11 04:23:38;;;;;;;;;;;8.40;99.90;;;;;;5105345;27;20006;-79
2023/12/11 04:26:04;;;;;;;;;;;8.40;99.90;;;;;;5105749;27;19934;-78
2023/12/11 04:28:30;;;;;;;;;;;8.40;99.90;;;;;;5092037;27;19926;-78
2023/12/11 04:30:55;;;;;;;;;;;8.40;99.90;;;;;;5101964;27;20428;-79
2023/12/11 04:33:21;;;;;;;;;;;8.40;99.90;;;;;;5104223;27;20006;-78
2023/12/11 04:35:47;;;;;;;;;;;8.40;99.90;;;;;;5078088;27;20222;-78
2023/12/11 04:38:13;;;;;;;;;;;8.40;99.90;;;;;;5096553;27;19938;-77
2023/12/11 04:40:38;;;;;;;;;;;8.40;99.90;;;;;;5104982;27;20011;-78
2023/12/11 04:43:04;;;;;;;;;;;8.10;99.90;;;;;;5094136;27;19931;-79
2023/12/11 04:45:30;;;;;;;;;;;8.40;99.90;;;;;;5079409;27;20468;-79
2023/12/11 04:47:55;;;;;;;;;;;8.40;99.90;;;;;;5113451;27;20293;-78
2023/12/11 04:50:21;;;;;;;;;;;8.50;99.90;;;;;;5113547;27;19928;-78
2023/12/11 04:52:47;;;;;;;;;;;8.50;99.90;;;;;;5114941;27;19927;-79
2023/12/11 04:55:12;;;;;;;;;;;8.50;99.90;;;;;;5109029;27;19927;-78
2023/12/11 04:57:38;;;;;;;;;;;8.40;99.90;;;;;;5093097;27;20032;-78
2023/12/11 05:00:04;;;;;;;;;;;8.50;99.90;;;;;;5083081;27;20468;-78
2023/12/11 05:02:30;;;;;;;;;;;8.40;99.90;;;;;;5128618;27;20264;-76
2023/12/11 05:04:56;;;;;;;;;;;8.40;99.90;;;;;;5125782;27;19938;-78
2023/12/11 05:07:22;;;;;;;;;;;8.40;99.90;;;;;;5108000;27;19927;-78
2023/12/11 05:09:47;;;;;;;;;;;8.40;99.90;;;;;;5109979;27;20229;-77
2023/12/11 05:12:13;;;;;;;;;;;8.40;99.90;;;;;;5104077;27;19926;-76
2023/12/11 05:14:39;;;;;;;;;;;8.40;99.90;;;;;;5110417;27;20372;-77
2023/12/11 05:17:05;;;;;;;;;;;8.40;99.90;;;;;;5097557;27;20396;-77
2023/12/11 05:19:30;;;;;;;;;;;8.30;99.90;;;;;;5105537;27;20369;-78
2023/12/11 05:21:58;;;;;;;;;;;8.30;99.90;;;;;;5103565;27;19923;-78
2023/12/11 05:24:24;;;;;;;;;;;8.40;99.90;;;;;;5098000;27;19927;-78
2023/12/11 05:26:50;;;;;;;;;;;8.40;99.90;;;;;;5110667;27;19920;-78
2023/12/11 05:29:16;;;;;;;;;;;8.40;99.90;;;;;;5094585;27;20309;-78
2023/12/11 05:31:42;;;;;;;;;;;8.40;99.90;;;;;;5107443;27;19967;-79
2023/12/11 05:34:08;;;;;;;;;;;8.50;99.90;;;;;;5106796;27;19935;-78
2023/12/11 05:36:33;;;;;;;;;;;8.50;99.90;;;;;;5113464;27;19938;-77
2023/12/11 05:38:59;;;;;;;;;;;8.60;99.90;;;;;;5108682;27;19949;-76
2023/12/11 05:41:25;;;;;;;;;;;8.50;99.90;;;;;;5108943;27;19979;-75
2023/12/11 05:43:50;;;;;;;;;;;8.50;99.90;;;;;;5125550;27;20031;-76
2023/12/11 05:46:16;;;;;;;;;;;8.50;99.90;;;;;;5104258;27;19966;-77
2023/12/11 05:48:42;;;;;;;;;;;8.40;99.90;;;;;;5099808;27;19931;-77
2023/12/11 05:51:07;;;;;;;;;;;8.30;99.90;;;;;;5092584;27;19927;-79
2023/12/11 05:53:34;;;;;;;;;;;8.40;99.90;;;;;;5111373;27;19992;-77
2023/12/11 05:56:00;;;;;;;;;;;8.30;99.90;;;;;;5106101;27;19928;-76
2023/12/11 05:58:26;;;;;;;;;;;8.30;99.90;;;;;;5108013;27;19934;-76
2023/12/11 06:00:51;;;;;;;;;;;8.30;99.90;;;;;;5105944;27;20369;-76
2023/12/11 06:03:17;;;;;;;;;;;8.30;99.90;;;;;;5108718;27;19934;-76
2023/12/11 06:05:49;;;;;;;;;;;8.30;99.90;;;;;;5106266;27;20011;-77
2023/12/11 06:08:14;;;;;;;;;;;8.30;99.90;;;;;;5108563;27;19935;-76
2023/12/11 06:10:40;;;;;;;;;;;8.30;99.90;;;;;;5077906;27;19959;-76
2023/12/11 06:13:06;;;;;;;;;;;8.30;99.90;;;;;;5118468;27;20018;-77
2023/12/11 06:15:31;;;;;;;;;;;8.30;99.90;;;;;;5111763;27;20050;-76
2023/12/11 06:17:57;;;;;;;;;;;8.30;99.90;;;;;;5110919;27;20583;-76
2023/12/11 06:20:22;;;;;;;;;;;8.20;99.90;;;;;;5112286;27;19927;-77
2023/12/11 06:22:49;;;;;;;;;;;8.30;99.90;;;;;;5097533;27;20773;-76
2023/12/11 06:25:15;;;;;;;;;;;8.30;99.90;;;;;;5096169;27;19931;-77
2023/12/11 06:27:40;;;;;;;;;;;8.30;99.90;;;;;;5099939;27;19938;-77
2023/12/11 06:30:07;;;;;;;;;;;8.20;99.90;;;;;;5112694;27;19934;-76
2023/12/11 06:32:33;;;;;;;;;;;8.20;99.90;;;;;;5109777;27;19935;-76
2023/12/11 06:34:59;;;;;;;;;;;8.20;99.90;;;;;;5097166;27;19927;-77
2023/12/11 06:37:25;;;;;;;;;;;8.10;99.90;;;;;;5106817;27;20273;-76
2023/12/11 06:39:50;;;;;;;;;;;8.20;99.90;;;;;;5109575;27;19970;-77
2023/12/11 06:42:16;;;;;;;;;;;8.10;99.90;;;;;;5102564;27;19923;-76
2023/12/11 06:44:42;;;;;;;;;;;8.10;99.90;;;;;;5111862;27;19930;-76
2023/12/11 06:47:09;;;;;;;;;;;8.10;99.90;;;;;;5111790;27;20331;-77
2023/12/11 06:49:34;;;;;;;;;;;8.00;99.90;;;;;;5097488;27;20168;-76
2023/12/11 06:52:00;;;;;;;;;;;8.00;99.90;;;;;;5098572;27;20071;-76
2023/12/11 06:54:26;;;;;;;;;;;8.00;99.90;;;;;;5106638;27;19927;-76
2023/12/11 06:56:51;;;;;;;;;;;8.00;99.90;;;;;;5108316;27;19958;-76
2023/12/11 06:59:17;;;;;;;;;;;8.00;99.90;;;;;;5110911;27;19930;-76
2023/12/11 07:01:43;;;;;;;;;;;8.00;99.90;;;;;;5124693;27;20293;-76
2023/12/11 07:04:08;;;;;;;;;;;8.00;99.90;;;;;;5090263;27;19920;-76
2023/12/11 07:06:34;;;;;;;;;;;8.00;99.90;;;;;;5112424;27;20030;-75
2023/12/11 07:09:00;;;;;;;;;;;8.00;99.90;;;;;;5111027;27;19974;-76
2023/12/11 07:11:25;;;;;;;;;;;8.00;99.90;;;;;;5112788;27;19995;-76
2023/12/11 07:13:52;;;;;;;;;;;8.00;99.90;;;;;;5100991;27;19966;-77
2023/12/11 07:16:18;;;;;;;;;;;8.00;99.90;;;;;;5108013;27;20294;-76
2023/12/11 07:18:44;;;;;;;;;;;8.00;99.90;;;;;;5092388;27;19930;-75
2023/12/11 07:21:10;;;;;;;;;;;8.00;99.90;;;;;;5087777;27;22667;-77
2023/12/11 07:23:36;;;;;;;;;;;8.00;99.90;;;;;;5092860;27;19931;-77
2023/12/11 07:26:04;;;;;;;;;;;8.00;99.90;;;;;;5114893;27;19934;-77
2023/12/11 07:28:30;;;;;;;;;;;8.00;99.90;;;;;;5096123;27;19966;-76
2023/12/11 07:30:58;;;;;;;;;;;8.00;99.90;;;;;;5106534;27;20214;-77
2023/12/11 07:33:24;;;;;;;;;;;8.00;99.90;;;;;;5116064;27;20291;-77
2023/12/11 07:35:50;;;;;;;;;;;8.00;99.90;;;;;;5111137;27;19919;-77
2023/12/11 07:38:16;;;;;;;;;;;8.00;99.90;;;;;;5091951;27;19935;-76
2023/12/11 07:40:42;;;;;;;;;;;8.00;99.90;;;;;;5091604;27;19927;-76
2023/12/11 07:43:08;;;;;;;;;;;8.00;99.90;;;;;;5086433;27;20273;-77
2023/12/11 07:45:34;;;;;;;;;;;8.00;99.90;;;;;;5112889;27;19981;-76
2023/12/11 07:47:59;;;;;;;;;;;8.00;99.90;;;;;;5114232;27;19978;-77
2023/12/11 07:50:25;;;;;;;;;;;8.00;99.90;;;;;;5108681;27;20889;-77
2023/12/11 07:52:50;;;;;;;;;;;8.00;99.90;;;;;;5109508;27;19935;-77
2023/12/11 07:55:16;;;;;;;;;;;8.00;99.90;;;;;;5112363;27;19934;-77
2023/12/11 07:57:42;;;;;;;;;;;8.10;99.90;;;;;;5095123;27;19977;-77
2023/12/11 08:00:09;;;;;;;;;;;8.00;99.90;;;;;;5097955;27;19928;-77
2023/12/11 08:02:35;;;;;;;;;;;8.00;99.90;;;;;;5109029;27;19933;-77
2023/12/11 08:05:02;;;;;;;;;;;8.10;99.90;;;;;;5110638;27;19928;-76
2023/12/11 08:07:28;;;;;;;;;;;8.10;99.90;;;;;;5130145;27;19959;-77
2023/12/11 08:09:53;;;;;;;;;;;8.10;99.90;;;;;;5110123;27;19923;-77
2023/12/11 08:12:19;;;;;;;;;;;8.10;99.90;;;;;;5130992;27;19988;-77
2023/12/11 08:14:44;;;;;;;;;;;8.10;99.90;;;;;;5078106;27;19937;-77
2023/12/11 08:17:10;;;;;;;;;;;8.10;99.90;;;;;;5115048;27;19927;-77
2023/12/11 08:19:36;;;;;;;;;;;8.10;99.90;;;;;;5115289;27;20266;-77
2023/12/11 08:22:03;;;;;;;;;;;8.10;99.90;;;;;;5103099;27;20270;-77
2023/12/11 08:24:28;;;;;;;;;;;8.10;99.90;;;;;;5124652;27;20247;-77
2023/12/11 08:26:54;;;;;;;;;;;8.10;99.90;;;;;;5122727;27;19919;-77
2023/12/11 08:29:21;;;;;;;;;;;8.10;99.90;;;;;;5087000;27;20032;-77
2023/12/11 08:31:47;;;;;;;;;;;8.10;99.90;;;;;;5115757;27;20418;-77
2023/12/11 08:34:12;;;;;;;;;;;8.00;99.90;;;;;;5102489;27;19941;-77
2023/12/11 08:36:38;;;;;;;;;;;8.10;99.90;;;;;;5104757;27;19934;-77
2023/12/11 08:39:04;;;;;;;;;;;8.10;99.90;;;;;;5121621;27;19919;-77
2023/12/11 08:41:29;;;;;;;;;;;8.20;99.90;;;;;;5097499;27;19934;-77
2023/12/11 08:43:55;;;;;;;;;;;8.20;99.90;;;;;;5118904;27;19927;-77
2023/12/11 08:46:22;;;;;;;;;;;8.20;99.90;;;;;;5118692;27;20022;-77
2023/12/11 08:48:48;;;;;;;;;;;8.20;99.90;;;;;;5115665;27;19927;-77
2023/12/11 08:51:18;;;;;;;;;;;8.20;99.90;;;;;;5118389;27;19924;-77
2023/12/11 08:53:43;;;;;;;;;;;8.20;99.90;;;;;;5122805;27;19927;-77
2023/12/11 08:56:09;;;;;;;;;;;8.30;99.90;;;;;;5090570;27;19934;-77
2023/12/11 08:58:36;;;;;;;;;;;8.30;99.90;;;;;;5125529;27;19927;-77
2023/12/11 09:01:03;;;;;;;;;;;8.30;99.90;;;;;;5099418;27;19998;-78
2023/12/11 09:03:29;;;;;;;;;;;8.30;99.90;;;;;;5105295;27;20045;-76
2023/12/11 09:05:54;;;;;;;;;;;8.30;99.90;;;;;;5109924;27;20030;-76
2023/12/11 09:08:20;;;;;;;;;;;8.30;99.90;;;;;;5110179;27;19977;-76
2023/12/11 09:10:46;;;;;;;;;;;8.40;99.90;;;;;;5108913;27;20482;-77
2023/12/11 09:13:12;;;;;;;;;;;8.40;99.90;;;;;;5119609;27;19923;-76
2023/12/11 09:15:37;;;;;;;;;;;8.40;99.90;;;;;;5118688;27;19935;-77
2023/12/11 09:18:04;;;;;;;;;;;8.40;99.90;;;;;;5111612;27;19942;-77
2023/12/11 09:20:30;;;;;;;;;;;8.40;99.90;;;;;;5120121;27;20010;-77
2023/12/11 09:22:55;;;;;;;;;;;8.40;99.90;;;;;;5123739;27;20030;-77
2023/12/11 09:25:21;;;;;;;;;;;8.40;99.90;;;;;;5121072;27;19923;-77
2023/12/11 09:27:46;;;;;;;;;;;8.40;99.90;;;;;;5116261;27;19958;-77
2023/12/11 09:30:12;;;;;;;;;;;8.50;99.90;;;;;;5121424;27;19923;-77
2023/12/11 09:32:38;;;;;;;;;;;8.40;99.90;;;;;;5119038;27;19983;-77
2023/12/11 09:35:04;;;;;;;;;;;8.50;99.90;;;;;;5104043;27;19952;-77
2023/12/11 09:37:29;;;;;;;;;;;8.50;99.90;;;;;;5110687;27;19923;-77
2023/12/11 09:39:55;;;;;;;;;;;8.50;99.90;;;;;;5113259;27;20447;-77
2023/12/11 09:42:21;;;;;;;;;;;8.50;99.90;;;;;;5111631;27;19926;-77
2023/12/11 09:44:47;;;;;;;;;;;8.60;99.90;;;;;;5120392;27;19948;-77
2023/12/11 09:47:19;;;;;;;;;;;8.60;99.90;;;;;;5117648;27;20318;-77
2023/12/11 09:49:48;;;;;;;;;;;8.60;99.90;;;;;;5111773;27;19927;-77
2023/12/11 09:52:14;;;;;;;;;;;8.60;99.90;;;;;;5107010;27;20028;-78
2023/12/11 09:54:40;;;;;;;;;;;8.70;99.90;;;;;;5082475;27;19927;-79
2023/12/11 09:57:09;;;;;;;;;;;8.70;99.90;;;;;;5082490;27;19931;-77
2023/12/11 09:59:35;;;;;;;;;;;8.70;99.90;;;;;;5099607;27;19931;-77
2023/12/11 10:02:03;;;;;;;;;;;8.70;99.90;;;;;;5108647;27;19988;-78
2023/12/11 10:04:29;;;;;;;;;;;8.80;99.90;;;;;;5090662;27;20501;-78
2023/12/11 10:06:55;;;;;;;;;;;8.70;99.90;;;;;;5091393;27;19927;-78
2023/12/11 10:09:33;;;;;;;;;;;8.70;99.90;;;;;;5126736;27;20450;-77
2023/12/11 10:11:59;;;;;;;;;;;8.70;99.90;;;;;;5093478;27;19923;-78
2023/12/11 10:14:25;;;;;;;;;;;8.70;99.90;;;;;;5117446;27;19927;-78
2023/12/11 10:16:51;;;;;;;;;;;8.70;99.90;;;;;;5081037;27;19967;-77
2023/12/11 10:19:19;;;;;;;;;;;8.60;99.90;;;;;;5087357;27;19931;-78
2023/12/11 10:21:46;;;;;;;;;;;8.70;99.90;;;;;;5107483;27;20192;-78
2023/12/11 10:24:14;;;;;;;;;;;8.70;99.90;;;;;;5069975;27;19927;-74
2023/12/11 10:26:53;;;;;;;;;;;8.70;99.90;;;;;;5096438;27;20211;-77
2023/12/11 10:29:23;;;;;;;;;;;8.60;99.90;;;;;;5106927;27;19934;-77
2023/12/11 10:31:49;;;;;;;;;;;8.70;99.90;;;;;;5096738;27;19927;-78
2023/12/11 10:34:15;;;;;;;;;;;8.60;99.90;;;;;;5115936;27;20176;-77
2023/12/11 10:36:50;;;;;;;;;;;8.60;99.90;;;;;;5116090;27;19929;-77
2023/12/11 10:39:17;;;;;;;;;;;8.60;99.90;;;;;;5075617;27;19928;-77
2023/12/11 10:41:45;;;;;;;;;;;8.60;99.90;;;;;;5079734;27;19927;-77
2023/12/11 10:44:27;;;;;;;;;;;8.50;99.90;;;;;;5107624;27;19939;-77
2023/12/11 10:46:55;;;;;;;;;;;8.50;99.90;;;;;;5116171;27;19931;-77
2023/12/11 10:49:21;;;;;;;;;;;8.50;99.90;;;;;;5099016;27;20014;-77
2023/12/11 10:51:47;;;;;;;;;;;8.50;99.90;;;;;;5112135;27;19962;-77
2023/12/11 10:54:13;;;;;;;;;;;8.50;99.90;;;;;;5115474;27;19968;-77
2023/12/11 10:56:43;;;;;;;;;;;8.50;99.90;;;;;;5116522;27;19927;-77
2023/12/11 10:59:12;;;;;;;;;;;8.50;99.90;;;;;;5098020;27;19934;-77
2023/12/11 11:01:39;;;;;;;;;;;8.50;99.90;;;;;;5102412;27;19927;-76
2023/12/11 11:04:06;;;;;;;;;;;8.60;99.90;;;;;;5096857;27;20358;-76
2023/12/11 11:06:32;;;;;;;;;;;8.60;99.90;;;;;;5121511;27;19970;-77
2023/12/11 11:09:00;;;;;;;;;;;8.60;99.90;;;;;;5119763;27;20344;-76
2023/12/11 11:11:31;;;;;;;;;;;8.60;99.90;;;;;;5105477;27;20014;-77
2023/12/11 11:14:09;;;;;;;;;;;8.60;99.90;;;;;;5109430;27;19927;-77
2023/12/11 11:17:01;;;;;;;;;;;8.60;99.90;;;;;;5115964;27;19923;-77
2023/12/11 11:19:29;;;;;;;;;;;8.60;99.90;;;;;;5096123;27;19927;-77
2023/12/11 11:22:03;;;;;;;;;;;8.70;99.90;;;;;;5110720;27;20378;-77
2023/12/11 11:24:30;;;;;;;;;;;8.70;99.90;;;;;;5116424;27;19938;-77
2023/12/11 11:26:56;;;;;;;;;;;8.70;99.90;;;;;;5108542;27;20400;-77
2023/12/11 11:29:41;;;;;;;;;;;8.70;99.90;;;;;;5082449;27;19928;-76
2023/12/11 11:32:12;;;;;;;;;;;8.70;99.90;;;;;;5113204;27;20417;-76
2023/12/11 11:34:40;;;;;;;;;;;8.60;99.90;;;;;;5099728;27;20014;-77
2023/12/11 11:37:22;;;;;;;;;;;8.60;99.90;;;;;;5107532;27;19972;-77
2023/12/11 11:39:56;;;;;;;;;;;8.50;99.90;;;;;;5094435;27;20020;-77
2023/12/11 11:42:22;;;;;;;;;;;8.60;99.90;;;;;;5097567;27;19934;-77
2023/12/11 11:44:47;;;;;;;;;;;8.50;99.90;;;;;;5103752;27;20298;-77
2023/12/11 11:47:19;;;;;;;;;;;8.50;99.90;;;;;;5123870;27;19934;-76
2023/12/11 11:49:45;;;;;;;;;;;8.50;99.90;;;;;;5105666;27;19931;-77
2023/12/11 11:52:11;;;;;;;;;;;8.60;99.90;;;;;;5088873;27;20076;-77
2023/12/11 11:54:38;;;;;;;;;;;8.60;99.90;;;;;;5106957;27;19928;-77
2023/12/11 11:57:04;;;;;;;;;;;8.60;99.90;;;;;;5089281;27;19927;-77
2023/12/11 11:59:29;;;;;;;;;;;8.70;99.90;;;;;;5106425;27;19927;-77
2023/12/11 12:01:56;;;;;;;;;;;8.70;99.90;;;;;;5091539;27;20389;-77
2023/12/11 12:04:29;;;;;;;;;;;8.60;99.90;;;;;;5103873;27;19976;-76
2023/12/11 12:06:55;;;;;;;;;;;8.60;99.90;;;;;;5092853;27;19938;-77
2023/12/11 12:09:21;;;;;;;;;;;8.70;99.90;;;;;;5074694;27;19938;-77
2023/12/11 12:11:47;;;;;;;;;;;8.60;99.90;;;;;;5103533;27;19940;-77
2023/12/11 12:14:13;;;;;;;;;;;8.70;99.90;;;;;;5100124;27;20120;-77
2023/12/11 12:16:39;;;;;;;;;;;8.60;99.90;;;;;;5094538;27;20124;-78
2023/12/11 12:19:05;;;;;;;;;;;8.60;99.90;;;;;;5076322;27;19928;-77
2023/12/11 12:21:32;;;;;;;;;;;8.60;99.90;;;;;;5093990;27;19927;-77
2023/12/11 12:24:03;;;;;;;;;;;8.50;99.90;;;;;;5099856;27;20217;-77
2023/12/11 12:26:30;;;;;;;;;;;8.50;99.90;;;;;;5103838;27;19931;-77
2023/12/11 12:28:55;;;;;;;;;;;8.60;99.90;;;;;;5111868;27;20444;-77
2023/12/11 12:31:21;;;;;;;;;;;8.60;99.90;;;;;;5091733;27;19923;-77
2023/12/11 12:33:48;;;;;;;;;;;8.50;99.90;;;;;;5109413;27;20014;-76
2023/12/11 12:36:13;;;;;;;;;;;8.50;99.90;;;;;;5086827;27;20273;-77
2023/12/11 12:38:39;;;;;;;;;;;8.40;99.90;;;;;;5099113;27;19934;-77
2023/12/11 12:41:10;;;;;;;;;;;8.40;99.90;;;;;;5095052;27;20010;-76
2023/12/11 12:43:35;;;;;;;;;;;8.40;99.90;;;;;;5109747;27;20023;-77
2023/12/11 12:46:01;;;;;;;;;;;8.30;99.90;;;;;;5079739;27;20364;-76
2023/12/11 12:48:28;;;;;;;;;;;8.30;99.90;;;;;;5108194;27;20266;-76
2023/12/11 12:51:06;;;;;;;;;;;8.20;99.90;;;;;;5104563;27;19927;-77
2023/12/11 12:53:32;;;;;;;;;;;8.20;99.90;;;;;;5095520;27;20022;-76
2023/12/11 12:55:58;;;;;;;;;;;8.10;99.90;;;;;;5095464;27;20020;-76
2023/12/11 12:58:29;;;;;;;;;;;8.10;99.90;;;;;;5115407;27;20281;-77
2023/12/11 13:00:55;;;;;;;;;;;8.10;99.90;;;;;;5078474;27;19937;-76
2023/12/11 13:03:25;;;;;;;;;;;8.10;99.90;;;;;;5109857;27;20010;-76
2023/12/11 13:05:54;;;;;;;;;;;8.00;99.90;;;;;;5109885;27;19966;-77
2023/12/11 13:08:20;;;;;;;;;;;8.00;99.90;;;;;;5114897;27;19926;-76
2023/12/11 13:10:55;;;;;;;;;;;8.00;99.90;;;;;;5111484;27;19927;-76
2023/12/11 13:13:27;;;;;;;;;;;8.00;99.90;;;;;;5112506;27;20461;-76
2023/12/11 13:15:53;;;;;;;;;;;8.00;99.90;;;;;;5117773;27;19978;-76
2023/12/11 13:18:18;;;;;;;;;;;7.90;99.90;;;;;;5109433;27;20014;-77
2023/12/11 13:20:44;;;;;;;;;;;8.00;99.90;;;;;;5114058;27;20310;-77
2023/12/11 13:23:10;;;;;;;;;;;8.00;99.90;;;;;;5108954;27;19943;-77
2023/12/11 13:25:35;;;;;;;;;;;8.10;99.90;;;;;;5111139;27;19932;-77
2023/12/11 13:28:01;;;;;;;;;;;8.10;99.90;;;;;;5116804;27;19938;-77
2023/12/11 13:30:27;;;;;;;;;;;8.20;99.90;;;;;;5113619;27;19923;-77
2023/12/11 13:32:53;;;;;;;;;;;8.20;99.90;;;;;;5094468;27;19927;-77
2023/12/11 13:35:18;;;;;;;;;;;8.30;99.90;;;;;;5093833;27;19923;-76
2023/12/11 13:37:44;;;;;;;;;;;8.30;99.90;;;;;;5114619;27;20061;-77
2023/12/11 13:40:13;;;;;;;;;;;8.30;99.90;;;;;;5084609;27;19938;-77
2023/12/11 13:42:38;;;;;;;;;;;8.40;99.90;;;;;;5111065;27;19966;-76
2023/12/11 13:45:05;;;;;;;;;;;8.40;99.90;;;;;;5122568;27;20345;-77
2023/12/11 13:47:30;;;;;;;;;;;8.40;99.90;;;;;;5091441;27;19927;-76
2023/12/11 13:49:56;;;;;;;;;;;8.40;99.90;;;;;;5095515;27;19927;-77
2023/12/11 13:52:22;;;;;;;;;;;8.40;99.90;;;;;;5112777;27;19952;-77
2023/12/11 13:54:47;;;;;;;;;;;8.30;99.90;;;;;;5096416;27;19931;-77
2023/12/11 13:57:13;;;;;;;;;;;8.30;99.90;;;;;;5112199;27;19923;-76
2023/12/11 13:59:40;;;;;;;;;;;8.30;99.90;;;;;;5097700;27;19935;-76
2023/12/11 14:02:06;;;;;;;;;;;8.30;99.90;;;;;;5093139;27;20381;-77
2023/12/11 14:04:32;;;;;;;;;;;8.30;99.90;;;;;;5110936;27;20373;-77
2023/12/11 14:06:57;;;;;;;;;;;8.20;99.90;;;;;;5108286;27;19935;-77
2023/12/11 14:09:23;;;;;;;;;;;8.20;99.90;;;;;;5109017;27;19931;-76
2023/12/11 14:11:49;;;;;;;;;;;8.10;99.90;;;;;;5115117;27;19927;-76
2023/12/11 14:14:15;;;;;;;;;;;8.10;99.90;;;;;;5126583;27;19931;-77
2023/12/11 14:16:40;;;;;;;;;;;8.00;99.90;;;;;;5100246;27;19935;-76
2023/12/11 14:19:06;;;;;;;;;;;8.00;99.90;;;;;;5109966;27;20302;-77
2023/12/11 14:21:32;;;;;;;;;;;8.00;99.90;;;;;;5110293;27;20279;-76
2023/12/11 14:23:57;;;;;;;;;;;7.90;99.90;;;;;;5110447;27;19935;-76
2023/12/11 14:26:23;;;;;;;;;;;7.90;99.90;;;;;;5091180;27;19931;-76